sensor_id;sensor_type;location;lat;lon;timestamp;pressure;altitude;pressure_sealevel;temperature;humidity
14242;BME280;7205;50.864;12.766;2022-09-03T00:02:32;97681.19;;;12.02;77.59
14242;BME280;7205;50.864;12.766;2022-09-03T00:05:05;97682.03;;;12.03;77.15
14242;BME280;7205;50.864;12.766;2022-09-03T00:07:40;97681.19;;;12.02;77.35
14242;BME280;7205;50.864;12.766;2022-09-03T00:10:12;97672.28;;;12.03;77.35
14242;BME280;7205;50.864;12.766;2022-09-03T00:12:42;97674.72;;;12.05;77.46
14242;BME280;7205;50.864;12.766;2022-09-03T00:15:12;97668.59;;;12.04;77.83
14242;BME280;7205;50.864;12.766;2022-09-03T00:17:46;97672.28;;;12.03;77.60
14242;BME280;7205;50.864;12.766;2022-09-03T00:20:16;97674.72;;;12.05;77.22
14242;BME280;7205;50.864;12.766;2022-09-03T00:22:46;97675.38;;;12.07;77.31
14242;BME280;7205;50.864;12.766;2022-09-03T00:25:17;97675.38;;;12.07;77.71
14242;BME280;7205;50.864;12.766;2022-09-03T00:27:47;97676.19;;;12.07;77.49
14242;BME280;7205;50.864;12.766;2022-09-03T00:30:17;97674.53;;;12.06;77.26
14242;BME280;7205;50.864;12.766;2022-09-03T00:32:49;97668.06;;;12.09;77.57
14242;BME280;7205;50.864;12.766;2022-09-03T00:35:22;97670.53;;;12.10;77.71
14242;BME280;7205;50.864;12.766;2022-09-03T00:37:51;97674.63;;;12.13;77.46
14242;BME280;7205;50.864;12.766;2022-09-03T00:40:30;97670.63;;;12.17;77.80
14242;BME280;7205;50.864;12.766;2022-09-03T00:43:06;97673.72;;;12.20;77.77
14242;BME280;7205;50.864;12.766;2022-09-03T00:45:41;97660.94;;;12.24;77.68
14242;BME280;7205;50.864;12.766;2022-09-03T00:48:16;97662.19;;;12.28;77.21
14242;BME280;7205;50.864;12.766;2022-09-03T00:50:58;97662.66;;;12.31;77.04
14242;BME280;7205;50.864;12.766;2022-09-03T00:53:34;97666.78;;;12.34;76.92
14242;BME280;7205;50.864;12.766;2022-09-03T00:56:11;97668.22;;;12.36;76.72
14242;BME280;7205;50.864;12.766;2022-09-03T00:58:54;97655.81;;;12.37;76.66
14242;BME280;7205;50.864;12.766;2022-09-03T01:01:26;97663.56;;;12.38;76.72
14242;BME280;7205;50.864;12.766;2022-09-03T01:04:05;97661.75;;;12.39;76.41
14242;BME280;7205;50.864;12.766;2022-09-03T01:06:40;97659.88;;;12.39;76.33
14242;BME280;7205;50.864;12.766;2022-09-03T01:09:21;97662.53;;;12.39;76.45
14242;BME280;7205;50.864;12.766;2022-09-03T01:11:58;97661.75;;;12.39;76.42
14242;BME280;7205;50.864;12.766;2022-09-03T01:14:45;97660.06;;;12.38;76.60
14242;BME280;7205;50.864;12.766;2022-09-03T01:17:26;97664.38;;;12.39;76.56
14242;BME280;7205;50.864;12.766;2022-09-03T01:20:13;97662.91;;;12.36;76.63
14242;BME280;7205;50.864;12.766;2022-09-03T01:23:12;97662.09;;;12.36;76.60
14242;BME280;7205;50.864;12.766;2022-09-03T01:25:52;97674.53;;;12.35;76.78
14242;BME280;7205;50.864;12.766;2022-09-03T01:28:34;97674.53;;;12.35;76.68
14242;BME280;7205;50.864;12.766;2022-09-03T01:31:13;97661.28;;;12.35;76.52
14242;BME280;7205;50.864;12.766;2022-09-03T01:33:49;97665.56;;;12.36;76.70
14242;BME280;7205;50.864;12.766;2022-09-03T01:36:23;97673.31;;;12.38;76.42
14242;BME280;7205;50.864;12.766;2022-09-03T01:38:54;97669.84;;;12.37;76.54
14242;BME280;7205;50.864;12.766;2022-09-03T01:41:29;97671.69;;;12.37;76.48
14242;BME280;7205;50.864;12.766;2022-09-03T01:44:27;97669.03;;;12.37;76.50
14242;BME280;7205;50.864;12.766;2022-09-03T01:47:04;97667.19;;;12.37;76.56
14242;BME280;7205;50.864;12.766;2022-09-03T01:49:39;97666.22;;;12.38;76.58
14242;BME280;7205;50.864;12.766;2022-09-03T01:52:13;97663.38;;;12.40;76.46
14242;BME280;7205;50.864;12.766;2022-09-03T01:54:52;97664.19;;;12.40;76.34
14242;BME280;7205;50.864;12.766;2022-09-03T01:57:38;97662.34;;;12.41;76.42
14242;BME280;7205;50.864;12.766;2022-09-03T02:00:09;97665.00;;;12.41;76.47
14242;BME280;7205;50.864;12.766;2022-09-03T02:02:39;97664.00;;;12.42;76.61
14242;BME280;7205;50.864;12.766;2022-09-03T02:05:09;97668.47;;;12.41;76.46
14242;BME280;7205;50.864;12.766;2022-09-03T02:07:39;97666.84;;;12.40;76.50
14242;BME280;7205;50.864;12.766;2022-09-03T02:10:09;97668.66;;;12.40;76.28
14242;BME280;7205;50.864;12.766;2022-09-03T02:12:38;97669.50;;;12.40;76.38
14242;BME280;7205;50.864;12.766;2022-09-03T02:15:12;97666.00;;;12.40;76.48
14242;BME280;7205;50.864;12.766;2022-09-03T02:17:42;97670.09;;;12.42;76.41
14242;BME280;7205;50.864;12.766;2022-09-03T02:20:11;97659.50;;;12.42;76.46
14242;BME280;7205;50.864;12.766;2022-09-03T02:22:44;97663.00;;;12.43;76.02
14242;BME280;7205;50.864;12.766;2022-09-03T02:25:12;97669.94;;;12.44;76.47
14242;BME280;7205;50.864;12.766;2022-09-03T02:27:39;97672.75;;;12.42;75.81
14242;BME280;7205;50.864;12.766;2022-09-03T02:30:07;97670.28;;;12.41;75.93
14242;BME280;7205;50.864;12.766;2022-09-03T02:32:36;97667.84;;;12.39;75.53
14242;BME280;7205;50.864;12.766;2022-09-03T02:35:03;97664.91;;;12.34;75.79
14242;BME280;7205;50.864;12.766;2022-09-03T02:37:31;97667.13;;;12.31;75.89
14242;BME280;7205;50.864;12.766;2022-09-03T02:39:58;97667.50;;;12.28;76.08
14242;BME280;7205;50.864;12.766;2022-09-03T02:42:25;97665.41;;;12.23;75.98
14242;BME280;7205;50.864;12.766;2022-09-03T02:44:54;97665.97;;;12.19;75.88
14242;BME280;7205;50.864;12.766;2022-09-03T02:47:24;97659.38;;;12.15;75.97
14242;BME280;7205;50.864;12.766;2022-09-03T02:49:56;97664.41;;;12.10;75.88
14242;BME280;7205;50.864;12.766;2022-09-03T02:52:23;97657.66;;;12.07;76.10
14242;BME280;7205;50.864;12.766;2022-09-03T02:54:50;97664.34;;;12.03;76.42
14242;BME280;7205;50.864;12.766;2022-09-03T02:57:17;97663.88;;;12.00;76.56
14242;BME280;7205;50.864;12.766;2022-09-03T02:59:44;97658.94;;;11.97;76.90
14242;BME280;7205;50.864;12.766;2022-09-03T03:02:12;97655.84;;;11.93;76.72
14242;BME280;7205;50.864;12.766;2022-09-03T03:04:39;97659.66;;;11.91;76.62
14242;BME280;7205;50.864;12.766;2022-09-03T03:07:07;97657.38;;;11.88;76.89
14242;BME280;7205;50.864;12.766;2022-09-03T03:09:34;97656.75;;;11.86;77.14
14242;BME280;7205;50.864;12.766;2022-09-03T03:12:01;97660.78;;;11.82;77.26
14242;BME280;7205;50.864;12.766;2022-09-03T03:14:28;97654.84;;;11.80;77.29
14242;BME280;7205;50.864;12.766;2022-09-03T03:16:55;97653.38;;;11.77;77.61
14242;BME280;7205;50.864;12.766;2022-09-03T03:19:22;97658.03;;;11.75;77.78
14242;BME280;7205;50.864;12.766;2022-09-03T03:21:49;97660.03;;;11.73;78.03
14242;BME280;7205;50.864;12.766;2022-09-03T03:24:17;97658.38;;;11.72;78.28
14242;BME280;7205;50.864;12.766;2022-09-03T03:26:44;97651.47;;;11.71;78.42
14242;BME280;7205;50.864;12.766;2022-09-03T03:29:14;97657.75;;;11.70;78.55
14242;BME280;7205;50.864;12.766;2022-09-03T03:31:42;97655.72;;;11.72;78.80
14242;BME280;7205;50.864;12.766;2022-09-03T03:34:09;97654.94;;;11.72;78.36
14242;BME280;7205;50.864;12.766;2022-09-03T03:36:36;97652.28;;;11.72;78.67
14242;BME280;7205;50.864;12.766;2022-09-03T03:39:03;97645.16;;;11.72;78.64
14242;BME280;7205;50.864;12.766;2022-09-03T03:41:33;97651.28;;;11.73;78.66
14242;BME280;7205;50.864;12.766;2022-09-03T03:44:03;97650.09;;;11.75;78.30
14242;BME280;7205;50.864;12.766;2022-09-03T03:46:33;97657.84;;;11.77;78.39
14242;BME280;7205;50.864;12.766;2022-09-03T03:49:00;97645.63;;;11.76;78.23
14242;BME280;7205;50.864;12.766;2022-09-03T03:51:27;97642.16;;;11.75;78.21
14242;BME280;7205;50.864;12.766;2022-09-03T03:53:55;97645.00;;;11.74;78.38
14242;BME280;7205;50.864;12.766;2022-09-03T03:56:23;97650.44;;;11.72;78.69
14242;BME280;7205;50.864;12.766;2022-09-03T03:58:52;97646.34;;;11.70;78.33
14242;BME280;7205;50.864;12.766;2022-09-03T04:01:21;97649.38;;;11.67;78.76
14242;BME280;7205;50.864;12.766;2022-09-03T04:03:48;97640.78;;;11.65;78.25
14242;BME280;7205;50.864;12.766;2022-09-03T04:06:18;97642.13;;;11.61;78.38
14242;BME280;7205;50.864;12.766;2022-09-03T04:08:46;97646.78;;;11.59;78.56
14242;BME280;7205;50.864;12.766;2022-09-03T04:11:16;97642.66;;;11.56;78.67
14242;BME280;7205;50.864;12.766;2022-09-03T04:13:44;97640.56;;;11.52;78.69
14242;BME280;7205;50.864;12.766;2022-09-03T04:16:15;97639.09;;;11.49;78.89
14242;BME280;7205;50.864;12.766;2022-09-03T04:18:43;97635.19;;;11.45;78.78
14242;BME280;7205;50.864;12.766;2022-09-03T04:21:11;97636.34;;;11.43;78.99
14242;BME280;7205;50.864;12.766;2022-09-03T04:23:39;97634.91;;;11.40;78.99
14242;BME280;7205;50.864;12.766;2022-09-03T04:26:08;97629.16;;;11.36;79.38
14242;BME280;7205;50.864;12.766;2022-09-03T04:28:35;97634.63;;;11.35;79.73
14242;BME280;7205;50.864;12.766;2022-09-03T04:31:03;97632.97;;;11.34;79.56
14242;BME280;7205;50.864;12.766;2022-09-03T04:33:33;97631.34;;;11.33;79.47
14242;BME280;7205;50.864;12.766;2022-09-03T04:36:02;97635.97;;;11.31;79.74
14242;BME280;7205;50.864;12.766;2022-09-03T04:38:30;97637.59;;;11.32;80.34
14242;BME280;7205;50.864;12.766;2022-09-03T04:40:57;97642.88;;;11.32;80.02
14242;BME280;7205;50.864;12.766;2022-09-03T04:43:25;97646.19;;;11.34;80.76
14242;BME280;7205;50.864;12.766;2022-09-03T04:45:55;97638.25;;;11.34;80.09
14242;BME280;7205;50.864;12.766;2022-09-03T04:48:23;97637.09;;;11.36;80.40
14242;BME280;7205;50.864;12.766;2022-09-03T04:50:52;97631.44;;;11.39;80.43
14242;BME280;7205;50.864;12.766;2022-09-03T04:53:19;97635.53;;;11.42;80.48
14242;BME280;7205;50.864;12.766;2022-09-03T04:55:47;97635.00;;;11.47;80.88
14242;BME280;7205;50.864;12.766;2022-09-03T04:58:14;97635.47;;;11.50;80.76
14242;BME280;7205;50.864;12.766;2022-09-03T05:00:40;97632.44;;;11.53;80.58
14242;BME280;7205;50.864;12.766;2022-09-03T05:03:07;97638.22;;;11.57;81.23
14242;BME280;7205;50.864;12.766;2022-09-03T05:05:34;97645.59;;;11.61;81.39
14242;BME280;7205;50.864;12.766;2022-09-03T05:08:03;97650.34;;;11.66;81.09
14242;BME280;7205;50.864;12.766;2022-09-03T05:10:30;97648.81;;;11.71;81.08
14242;BME280;7205;50.864;12.766;2022-09-03T05:12:58;97643.81;;;11.76;81.03
14242;BME280;7205;50.864;12.766;2022-09-03T05:15:25;97650.19;;;11.82;81.21
14242;BME280;7205;50.864;12.766;2022-09-03T05:17:55;97649.44;;;11.88;81.06
14242;BME280;7205;50.864;12.766;2022-09-03T05:20:22;97656.50;;;11.95;80.81
14242;BME280;7205;50.864;12.766;2022-09-03T05:22:49;97655.75;;;12.01;80.46
14242;BME280;7205;50.864;12.766;2022-09-03T05:25:18;97654.19;;;12.07;80.56
14242;BME280;7205;50.864;12.766;2022-09-03T05:27:45;97649.97;;;12.12;80.38
14242;BME280;7205;50.864;12.766;2022-09-03T05:30:12;97646.59;;;12.18;80.32
14242;BME280;7205;50.864;12.766;2022-09-03T05:32:39;97644.22;;;12.23;80.05
14242;BME280;7205;50.864;12.766;2022-09-03T05:35:07;97650.25;;;12.32;79.96
14242;BME280;7205;50.864;12.766;2022-09-03T05:37:35;97649.69;;;12.36;79.83
14242;BME280;7205;50.864;12.766;2022-09-03T05:40:03;97654.06;;;12.44;79.97
14242;BME280;7205;50.864;12.766;2022-09-03T05:42:31;97656.59;;;12.52;79.54
14242;BME280;7205;50.864;12.766;2022-09-03T05:45:05;97653.19;;;12.58;79.44
14242;BME280;7205;50.864;12.766;2022-09-03T05:47:34;97649.59;;;12.66;79.44
14242;BME280;7205;50.864;12.766;2022-09-03T05:50:01;97646.19;;;12.72;79.27
14242;BME280;7205;50.864;12.766;2022-09-03T05:52:28;97655.03;;;12.79;79.06
14242;BME280;7205;50.864;12.766;2022-09-03T05:54:54;97653.28;;;12.86;79.03
14242;BME280;7205;50.864;12.766;2022-09-03T05:57:21;97648.03;;;12.92;78.94
14242;BME280;7205;50.864;12.766;2022-09-03T05:59:51;97655.22;;;12.98;78.58
14242;BME280;7205;50.864;12.766;2022-09-03T06:02:17;97655.13;;;13.06;78.64
14242;BME280;7205;50.864;12.766;2022-09-03T06:04:44;97657.66;;;13.14;78.27
14242;BME280;7205;50.864;12.766;2022-09-03T06:07:11;97665.47;;;13.22;78.21
14242;BME280;7205;50.864;12.766;2022-09-03T06:09:39;97660.22;;;13.29;77.87
14242;BME280;7205;50.864;12.766;2022-09-03T06:12:06;97664.56;;;13.36;77.46
14242;BME280;7205;50.864;12.766;2022-09-03T06:14:33;97656.69;;;13.43;77.33
14242;BME280;7205;50.864;12.766;2022-09-03T06:17:01;97661.00;;;13.50;77.00
14242;BME280;7205;50.864;12.766;2022-09-03T06:19:28;97664.53;;;13.57;76.47
14242;BME280;7205;50.864;12.766;2022-09-03T06:21:55;97660.09;;;13.64;75.98
14242;BME280;7205;50.864;12.766;2022-09-03T06:24:22;97664.44;;;13.72;75.52
14242;BME280;7205;50.864;12.766;2022-09-03T06:26:49;97660.81;;;13.79;75.09
14242;BME280;7205;50.864;12.766;2022-09-03T06:29:16;97651.88;;;13.87;74.82
14242;BME280;7205;50.864;12.766;2022-09-03T06:31:44;97655.38;;;13.94;74.39
14242;BME280;7205;50.864;12.766;2022-09-03T06:34:14;97652.56;;;14.02;74.25
14242;BME280;7205;50.864;12.766;2022-09-03T06:36:44;97659.38;;;14.11;74.01
14242;BME280;7205;50.864;12.766;2022-09-03T06:39:11;97663.66;;;14.19;73.52
14242;BME280;7205;50.864;12.766;2022-09-03T06:41:38;97662.91;;;14.25;73.45
14242;BME280;7205;50.864;12.766;2022-09-03T06:44:06;97662.75;;;14.33;73.04
14242;BME280;7205;50.864;12.766;2022-09-03T06:46:37;97667.28;;;14.39;72.76
14242;BME280;7205;50.864;12.766;2022-09-03T06:49:07;97670.78;;;14.46;72.85
14242;BME280;7205;50.864;12.766;2022-09-03T06:51:36;97668.97;;;14.53;72.29
14242;BME280;7205;50.864;12.766;2022-09-03T06:54:04;97661.03;;;14.59;72.19
14242;BME280;7205;50.864;12.766;2022-09-03T06:56:32;97659.84;;;14.68;71.86
14242;BME280;7205;50.864;12.766;2022-09-03T06:59:03;97661.69;;;14.74;71.37
14242;BME280;7205;50.864;12.766;2022-09-03T07:01:32;97657.00;;;14.83;71.13
14242;BME280;7205;50.864;12.766;2022-09-03T07:04:01;97655.97;;;14.90;70.21
14242;BME280;7205;50.864;12.766;2022-09-03T07:06:30;97660.31;;;14.98;70.31
14242;BME280;7205;50.864;12.766;2022-09-03T07:08:59;97662.75;;;15.06;69.85
14242;BME280;7205;50.864;12.766;2022-09-03T07:11:27;97666.03;;;15.15;69.53
14242;BME280;7205;50.864;12.766;2022-09-03T07:13:55;97659.91;;;15.21;69.76
14242;BME280;7205;50.864;12.766;2022-09-03T07:16:26;97659.53;;;15.30;70.06
14242;BME280;7205;50.864;12.766;2022-09-03T07:18:54;97655.81;;;15.38;69.92
14242;BME280;7205;50.864;12.766;2022-09-03T07:21:23;97655.84;;;15.44;69.70
14242;BME280;7205;50.864;12.766;2022-09-03T07:23:51;97654.00;;;15.51;68.98
14242;BME280;7205;50.864;12.766;2022-09-03T07:26:21;97646.22;;;15.56;67.92
14242;BME280;7205;50.864;12.766;2022-09-03T07:28:49;97659.31;;;15.64;67.17
14242;BME280;7205;50.864;12.766;2022-09-03T07:31:20;97658.09;;;15.73;67.23
14242;BME280;7205;50.864;12.766;2022-09-03T07:33:52;97662.38;;;15.81;67.15
14242;BME280;7205;50.864;12.766;2022-09-03T07:36:22;97654.97;;;15.89;66.82
14242;BME280;7205;50.864;12.766;2022-09-03T07:38:49;97656.63;;;15.97;66.36
14242;BME280;7205;50.864;12.766;2022-09-03T07:41:16;97656.59;;;16.03;65.81
14242;BME280;7205;50.864;12.766;2022-09-03T07:43:45;97653.91;;;16.10;65.18
14242;BME280;7205;50.864;12.766;2022-09-03T07:46:13;97652.06;;;16.17;64.84
14242;BME280;7205;50.864;12.766;2022-09-03T07:48:46;97655.53;;;16.24;64.63
14242;BME280;7205;50.864;12.766;2022-09-03T07:51:15;97645.84;;;16.29;64.10
14242;BME280;7205;50.864;12.766;2022-09-03T07:53:42;97650.75;;;16.39;63.45
14242;BME280;7205;50.864;12.766;2022-09-03T07:56:10;97654.03;;;16.48;63.16
14242;BME280;7205;50.864;12.766;2022-09-03T07:58:38;97651.13;;;16.56;62.47
14242;BME280;7205;50.864;12.766;2022-09-03T08:01:09;97655.38;;;16.63;61.72
14242;BME280;7205;50.864;12.766;2022-09-03T08:03:37;97659.00;;;16.75;61.18
14242;BME280;7205;50.864;12.766;2022-09-03T08:06:06;97655.66;;;16.86;61.59
14242;BME280;7205;50.864;12.766;2022-09-03T08:08:34;97659.28;;;16.98;61.38
14242;BME280;7205;50.864;12.766;2022-09-03T08:11:05;97655.94;;;17.09;60.68
14242;BME280;7205;50.864;12.766;2022-09-03T08:13:34;97664.06;;;17.21;60.00
14242;BME280;7205;50.864;12.766;2022-09-03T08:16:01;97666.25;;;17.30;60.32
14242;BME280;7205;50.864;12.766;2022-09-03T08:18:31;97671.31;;;17.38;59.08
14242;BME280;7205;50.864;12.766;2022-09-03T08:21:06;97658.13;;;17.43;58.21
14242;BME280;7205;50.864;12.766;2022-09-03T08:23:36;97653.22;;;17.47;57.72
14242;BME280;7205;50.864;12.766;2022-09-03T08:26:03;97656.47;;;17.49;56.96
14242;BME280;7205;50.864;12.766;2022-09-03T08:28:32;97658.09;;;17.50;56.17
14242;BME280;7205;50.864;12.766;2022-09-03T08:31:04;97655.88;;;17.47;56.01
14242;BME280;7205;50.864;12.766;2022-09-03T08:33:33;97653.81;;;17.49;56.06
14242;BME280;7205;50.864;12.766;2022-09-03T08:36:04;97643.13;;;17.49;55.68
14242;BME280;7205;50.864;12.766;2022-09-03T08:38:32;97649.31;;;17.49;55.24
14242;BME280;7205;50.864;12.766;2022-09-03T08:41:04;97646.63;;;17.49;55.14
14242;BME280;7205;50.864;12.766;2022-09-03T08:43:42;97656.25;;;17.50;55.42
14242;BME280;7205;50.864;12.766;2022-09-03T08:46:14;97645.97;;;17.54;55.53
14242;BME280;7205;50.864;12.766;2022-09-03T08:48:44;97639.34;;;17.57;55.80
14242;BME280;7205;50.864;12.766;2022-09-03T08:51:13;97643.25;;;17.61;55.75
14242;BME280;7205;50.864;12.766;2022-09-03T08:53:45;97645.25;;;17.65;55.78
14242;BME280;7205;50.864;12.766;2022-09-03T08:56:19;97641.56;;;17.66;55.71
14242;BME280;7205;50.864;12.766;2022-09-03T08:58:46;97642.94;;;17.69;54.58
14242;BME280;7205;50.864;12.766;2022-09-03T09:01:22;97636.00;;;17.68;54.58
14242;BME280;7205;50.864;12.766;2022-09-03T09:04:06;97636.00;;;17.68;54.72
14242;BME280;7205;50.864;12.766;2022-09-03T09:06:41;97630.41;;;17.69;54.23
14242;BME280;7205;50.864;12.766;2022-09-03T09:09:21;97634.31;;;17.73;54.04
14242;BME280;7205;50.864;12.766;2022-09-03T09:11:57;97636.31;;;17.78;54.26
14242;BME280;7205;50.864;12.766;2022-09-03T09:14:31;97630.50;;;17.81;53.99
14242;BME280;7205;50.864;12.766;2022-09-03T09:17:14;97635.19;;;17.85;53.93
14242;BME280;7205;50.864;12.766;2022-09-03T09:19:52;97631.88;;;17.90;54.36
14242;BME280;7205;50.864;12.766;2022-09-03T09:22:28;97636.75;;;17.93;53.46
14242;BME280;7205;50.864;12.766;2022-09-03T09:25:01;97628.69;;;17.99;53.66
14242;BME280;7205;50.864;12.766;2022-09-03T09:27:31;97624.31;;;18.05;53.15
14242;BME280;7205;50.864;12.766;2022-09-03T09:30:00;97626.31;;;18.09;51.83
14242;BME280;7205;50.864;12.766;2022-09-03T09:32:29;97629.34;;;18.13;51.07
14242;BME280;7205;50.864;12.766;2022-09-03T09:35:00;97621.69;;;18.16;50.69
14242;BME280;7205;50.864;12.766;2022-09-03T09:37:27;97621.25;;;18.19;50.92
14242;BME280;7205;50.864;12.766;2022-09-03T09:39:56;97627.56;;;18.25;50.57
14242;BME280;7205;50.864;12.766;2022-09-03T09:42:24;97621.31;;;18.31;50.43
14242;BME280;7205;50.864;12.766;2022-09-03T09:44:51;97621.69;;;18.34;50.51
14242;BME280;7205;50.864;12.766;2022-09-03T09:47:24;97613.22;;;18.37;50.61
14242;BME280;7205;50.864;12.766;2022-09-03T09:49:54;97615.03;;;18.43;50.88
14242;BME280;7205;50.864;12.766;2022-09-03T09:52:24;97611.69;;;18.48;50.62
14242;BME280;7205;50.864;12.766;2022-09-03T09:55:05;97608.78;;;18.49;50.35
14242;BME280;7205;50.864;12.766;2022-09-03T09:57:33;97610.53;;;18.55;49.75
14242;BME280;7205;50.864;12.766;2022-09-03T10:00:04;97604.97;;;18.57;49.17
14242;BME280;7205;50.864;12.766;2022-09-03T10:02:38;97601.03;;;18.59;49.10
14242;BME280;7205;50.864;12.766;2022-09-03T10:05:14;97598.13;;;18.61;49.84
14242;BME280;7205;50.864;12.766;2022-09-03T10:07:55;97601.16;;;18.64;50.16
14242;BME280;7205;50.864;12.766;2022-09-03T10:10:22;97597.22;;;18.67;49.03
14242;BME280;7205;50.864;12.766;2022-09-03T10:12:54;97594.34;;;18.68;47.57
14242;BME280;7205;50.864;12.766;2022-09-03T10:15:29;97592.44;;;18.69;47.74
14242;BME280;7205;50.864;12.766;2022-09-03T10:18:02;97596.19;;;18.68;47.61
14242;BME280;7205;50.864;12.766;2022-09-03T10:20:35;97608.50;;;18.69;47.61
14242;BME280;7205;50.864;12.766;2022-09-03T10:23:14;97601.31;;;18.69;47.50
14242;BME280;7205;50.864;12.766;2022-09-03T10:25:54;97602.50;;;18.73;47.92
14242;BME280;7205;50.864;12.766;2022-09-03T10:28:29;97604.47;;;18.78;48.40
14242;BME280;7205;50.864;12.766;2022-09-03T10:31:16;97598.06;;;18.79;48.36
14242;BME280;7205;50.864;12.766;2022-09-03T10:33:50;97597.97;;;18.86;48.60
14242;BME280;7205;50.864;12.766;2022-09-03T10:36:23;97592.19;;;18.89;48.55
14242;BME280;7205;50.864;12.766;2022-09-03T10:39:01;97593.81;;;18.90;48.23
14242;BME280;7205;50.864;12.766;2022-09-03T10:41:42;97595.00;;;18.94;47.30
14242;BME280;7205;50.864;12.766;2022-09-03T10:44:30;97590.78;;;18.98;46.96
14242;BME280;7205;50.864;12.766;2022-09-03T10:47:13;97592.56;;;19.04;46.49
14242;BME280;7205;50.864;12.766;2022-09-03T10:49:50;97585.47;;;19.09;46.29
14242;BME280;7205;50.864;12.766;2022-09-03T10:52:26;97583.16;;;19.13;45.96
14242;BME280;7205;50.864;12.766;2022-09-03T10:55:06;97575.47;;;19.16;46.00
14242;BME280;7205;50.864;12.766;2022-09-03T10:57:44;97579.91;;;19.22;46.04
14242;BME280;7205;50.864;12.766;2022-09-03T11:00:15;97583.31;;;19.29;46.04
14242;BME280;7205;50.864;12.766;2022-09-03T11:03:06;97582.03;;;19.32;45.62
14242;BME280;7205;50.864;12.766;2022-09-03T11:05:39;97583.56;;;19.39;45.37
14242;BME280;7205;50.864;12.766;2022-09-03T11:08:13;97581.47;;;19.41;44.43
14242;BME280;7205;50.864;12.766;2022-09-03T11:10:47;97575.88;;;19.43;44.06
14242;BME280;7205;50.864;12.766;2022-09-03T11:14:07;97578.06;;;19.46;44.57
14242;BME280;7205;50.864;12.766;2022-09-03T11:16:38;97564.00;;;19.50;44.65
14242;BME280;7205;50.864;12.766;2022-09-03T11:19:09;97568.41;;;19.56;44.82
14242;BME280;7205;50.864;12.766;2022-09-03T11:21:40;97565.03;;;19.61;44.32
14242;BME280;7205;50.864;12.766;2022-09-03T11:24:11;97571.56;;;19.65;44.14
14242;BME280;7205;50.864;12.766;2022-09-03T11:26:42;97558.75;;;19.67;43.28
14242;BME280;7205;50.864;12.766;2022-09-03T11:29:15;97551.53;;;19.67;42.97
14242;BME280;7205;50.864;12.766;2022-09-03T11:31:51;97549.66;;;19.68;43.76
14242;BME280;7205;50.864;12.766;2022-09-03T11:34:28;97550.25;;;19.70;43.99
14242;BME280;7205;50.864;12.766;2022-09-03T11:37:15;97551.84;;;19.71;43.76
14242;BME280;7205;50.864;12.766;2022-09-03T11:39:43;97538.03;;;19.74;43.45
14242;BME280;7205;50.864;12.766;2022-09-03T11:42:26;97548.72;;;19.74;43.51
14242;BME280;7205;50.864;12.766;2022-09-03T11:44:59;97548.25;;;19.77;43.50
14242;BME280;7205;50.864;12.766;2022-09-03T11:47:37;97548.03;;;19.78;44.44
14242;BME280;7205;50.864;12.766;2022-09-03T11:50:07;97542.53;;;19.85;44.85
14242;BME280;7205;50.864;12.766;2022-09-03T11:52:41;97546.63;;;19.87;44.48
14242;BME280;7205;50.864;12.766;2022-09-03T11:55:08;97547.28;;;19.94;44.34
14242;BME280;7205;50.864;12.766;2022-09-03T11:57:41;97548.94;;;19.95;44.09
14242;BME280;7205;50.864;12.766;2022-09-03T12:00:11;97543.44;;;20.02;44.81
14242;BME280;7205;50.864;12.766;2022-09-03T12:02:43;97541.34;;;20.04;44.25
14242;BME280;7205;50.864;12.766;2022-09-03T12:05:20;97539.44;;;20.05;44.04
14242;BME280;7205;50.864;12.766;2022-09-03T12:08:01;97533.28;;;20.04;43.77
14242;BME280;7205;50.864;12.766;2022-09-03T12:10:38;97530.63;;;20.04;43.58
14242;BME280;7205;50.864;12.766;2022-09-03T12:13:17;97538.66;;;20.04;43.68
14242;BME280;7205;50.864;12.766;2022-09-03T12:16:14;97541.34;;;20.04;43.17
14242;BME280;7205;50.864;12.766;2022-09-03T12:18:46;97541.44;;;20.09;43.19
14242;BME280;7205;50.864;12.766;2022-09-03T12:21:17;97532.91;;;20.12;43.62
14242;BME280;7205;50.864;12.766;2022-09-03T12:23:46;97529.78;;;20.15;44.08
14242;BME280;7205;50.864;12.766;2022-09-03T12:26:15;97525.00;;;20.17;44.17
14242;BME280;7205;50.864;12.766;2022-09-03T12:28:44;97521.25;;;20.18;44.00
14242;BME280;7205;50.864;12.766;2022-09-03T12:31:15;97512.50;;;20.23;43.86
14242;BME280;7205;50.864;12.766;2022-09-03T12:33:52;97518.19;;;20.26;43.92
14242;BME280;7205;50.864;12.766;2022-09-03T12:36:20;97508.38;;;20.32;44.45
14242;BME280;7205;50.864;12.766;2022-09-03T12:38:47;97520.84;;;20.38;44.54
14242;BME280;7205;50.864;12.766;2022-09-03T12:41:22;97513.94;;;20.42;43.89
14242;BME280;7205;50.864;12.766;2022-09-03T12:43:54;97514.28;;;20.45;43.81
14242;BME280;7205;50.864;12.766;2022-09-03T12:46:22;97506.56;;;20.49;43.81
14242;BME280;7205;50.864;12.766;2022-09-03T12:48:54;97509.81;;;20.51;43.22
14242;BME280;7205;50.864;12.766;2022-09-03T12:51:22;97508.03;;;20.56;42.88
14242;BME280;7205;50.864;12.766;2022-09-03T12:53:50;97508.59;;;20.58;42.55
14242;BME280;7205;50.864;12.766;2022-09-03T12:56:20;97505.66;;;20.60;42.63
14242;BME280;7205;50.864;12.766;2022-09-03T12:58:52;97497.16;;;20.63;42.74
14242;BME280;7205;50.864;12.766;2022-09-03T13:01:25;97498.28;;;20.67;42.99
14242;BME280;7205;50.864;12.766;2022-09-03T13:04:00;97498.84;;;20.69;42.95
14242;BME280;7205;50.864;12.766;2022-09-03T13:06:32;97493.81;;;20.72;42.62
14242;BME280;7205;50.864;12.766;2022-09-03T13:09:02;97499.53;;;20.76;43.01
14242;BME280;7205;50.864;12.766;2022-09-03T13:11:32;97489.91;;;20.80;43.07
14242;BME280;7205;50.864;12.766;2022-09-03T13:14:04;97491.06;;;20.84;42.34
14242;BME280;7205;50.864;12.766;2022-09-03T13:17:08;97483.84;;;20.84;42.26
14242;BME280;7205;50.864;12.766;2022-09-03T13:19:46;97490.06;;;20.90;42.30
14242;BME280;7205;50.864;12.766;2022-09-03T13:22:22;97490.97;;;20.95;42.02
14242;BME280;7205;50.864;12.766;2022-09-03T13:25:06;97491.09;;;21.00;42.11